sensor_id;sensor_type;location;lat;lon;timestamp;pressure;altitude;pressure_sealevel;temperature;humidity
38616;BME280;24370;51.986;4.666;2024-01-06T00:01:29;100522.22;;;14.81;47.07
38616;BME280;24370;51.986;4.666;2024-01-06T00:03:55;100528.00;;;14.64;48.20
38616;BME280;24370;51.986;4.666;2024-01-06T00:06:20;100529.22;;;14.24;48.60
38616;BME280;24370;51.986;4.666;2024-01-06T00:08:47;100536.19;;;14.25;47.95
38616;BME280;24370;51.986;4.666;2024-01-06T00:11:16;100536.41;;;13.56;49.90
38616;BME280;24370;51.986;4.666;2024-01-06T00:13:41;100530.75;;;14.31;48.35
38616;BME280;24370;51.986;4.666;2024-01-06T00:16:07;100537.72;;;13.72;48.56
38616;BME280;24370;51.986;4.666;2024-01-06T00:18:32;100537.09;;;14.24;47.87
38616;BME280;24370;51.986;4.666;2024-01-06T00:20:57;100537.44;;;13.82;49.80
38616;BME280;24370;51.986;4.666;2024-01-06T00:23:23;100538.56;;;14.04;49.16
38616;BME280;24370;51.986;4.666;2024-01-06T00:25:48;100538.91;;;13.61;48.92
38616;BME280;24370;51.986;4.666;2024-01-06T00:28:14;100541.84;;;14.71;47.30
38616;BME280;24370;51.986;4.666;2024-01-06T00:30:39;100544.53;;;14.39;48.07
38616;BME280;24370;51.986;4.666;2024-01-06T00:33:04;100547.41;;;14.88;46.35
38616;BME280;24370;51.986;4.666;2024-01-06T00:35:30;100542.72;;;14.98;46.88
38616;BME280;24370;51.986;4.666;2024-01-06T00:37:55;100548.16;;;14.35;47.77
38616;BME280;24370;51.986;4.666;2024-01-06T00:40:20;100544.81;;;14.30;47.42
38616;BME280;24370;51.986;4.666;2024-01-06T00:42:46;100543.91;;;15.15;45.85
38616;BME280;24370;51.986;4.666;2024-01-06T00:45:11;100540.59;;;14.24;47.38
38616;BME280;24370;51.986;4.666;2024-01-06T00:47:36;100547.41;;;14.32;47.15
38616;BME280;24370;51.986;4.666;2024-01-06T00:50:02;100552.75;;;14.57;46.82
38616;BME280;24370;51.986;4.666;2024-01-06T00:52:27;100561.47;;;13.68;48.85
38616;BME280;24370;51.986;4.666;2024-01-06T00:54:53;100562.25;;;14.03;47.81
38616;BME280;24370;51.986;4.666;2024-01-06T00:57:18;100566.50;;;13.43;48.88
38616;BME280;24370;51.986;4.666;2024-01-06T00:59:49;100567.50;;;13.71;49.12
38616;BME280;24370;51.986;4.666;2024-01-06T01:02:14;100563.53;;;13.56;48.84
38616;BME280;24370;51.986;4.666;2024-01-06T01:04:39;100556.78;;;14.40;46.91
38616;BME280;24370;51.986;4.666;2024-01-06T01:07:05;100571.91;;;13.36;48.35
38616;BME280;24370;51.986;4.666;2024-01-06T01:09:30;100577.31;;;13.65;48.66
38616;BME280;24370;51.986;4.666;2024-01-06T01:11:55;100581.59;;;14.60;46.31
38616;BME280;24370;51.986;4.666;2024-01-06T01:14:21;100582.63;;;13.27;48.65
38616;BME280;24370;51.986;4.666;2024-01-06T01:16:46;100582.63;;;14.26;46.94
38616;BME280;24370;51.986;4.666;2024-01-06T01:19:12;100588.19;;;14.75;45.50
38616;BME280;24370;51.986;4.666;2024-01-06T01:21:37;100595.00;;;13.91;48.49
38616;BME280;24370;51.986;4.666;2024-01-06T01:24:03;100603.03;;;13.52;47.97
38616;BME280;24370;51.986;4.666;2024-01-06T01:26:31;100602.09;;;14.49;46.32
38616;BME280;24370;51.986;4.666;2024-01-06T01:28:56;100609.50;;;13.38;47.98
38616;BME280;24370;51.986;4.666;2024-01-06T01:31:22;100621.78;;;13.36;47.76
38616;BME280;24370;51.986;4.666;2024-01-06T01:33:47;100612.03;;;14.07;46.50
38616;BME280;24370;51.986;4.666;2024-01-06T01:36:13;100624.53;;;14.31;46.27
38616;BME280;24370;51.986;4.666;2024-01-06T01:38:38;100621.13;;;14.27;46.37
38616;BME280;24370;51.986;4.666;2024-01-06T01:41:03;100633.59;;;13.89;46.45
38616;BME280;24370;51.986;4.666;2024-01-06T01:43:29;100626.56;;;14.21;45.54
38616;BME280;24370;51.986;4.666;2024-01-06T01:45:56;100622.69;;;14.64;45.42
38616;BME280;24370;51.986;4.666;2024-01-06T01:48:22;100629.59;;;14.37;46.07
38616;BME280;24370;51.986;4.666;2024-01-06T01:50:48;100628.66;;;14.10;47.19
38616;BME280;24370;51.986;4.666;2024-01-06T01:53:14;100634.72;;;14.12;47.18
38616;BME280;24370;51.986;4.666;2024-01-06T01:55:43;100633.84;;;13.80;47.18
38616;BME280;24370;51.986;4.666;2024-01-06T01:58:10;100644.16;;;13.86;47.62
38616;BME280;24370;51.986;4.666;2024-01-06T02:00:37;100644.97;;;13.55;47.72
38616;BME280;24370;51.986;4.666;2024-01-06T02:03:04;100639.75;;;15.09;45.35
38616;BME280;24370;51.986;4.666;2024-01-06T02:05:30;100648.06;;;15.23;45.19
38616;BME280;24370;51.986;4.666;2024-01-06T02:07:56;100647.66;;;15.36;44.76
38616;BME280;24370;51.986;4.666;2024-01-06T02:10:21;100648.50;;;14.20;47.07
38616;BME280;24370;51.986;4.666;2024-01-06T02:12:48;100651.75;;;13.97;47.38
38616;BME280;24370;51.986;4.666;2024-01-06T02:15:14;100656.31;;;15.13;45.22
38616;BME280;24370;51.986;4.666;2024-01-06T02:17:39;100652.63;;;13.97;47.11
38616;BME280;24370;51.986;4.666;2024-01-06T02:20:06;100650.28;;;14.81;45.85
38616;BME280;24370;51.986;4.666;2024-01-06T02:22:34;100661.41;;;14.89;44.93
38616;BME280;24370;51.986;4.666;2024-01-06T02:25:00;100672.84;;;12.84;49.00
38616;BME280;24370;51.986;4.666;2024-01-06T02:27:25;100676.91;;;13.35;48.07
38616;BME280;24370;51.986;4.666;2024-01-06T02:29:51;100684.75;;;13.39;48.12
38616;BME280;24370;51.986;4.666;2024-01-06T02:32:16;100692.69;;;13.72;46.85
38616;BME280;24370;51.986;4.666;2024-01-06T02:34:41;100692.44;;;13.46;46.90
38616;BME280;24370;51.986;4.666;2024-01-06T02:37:07;100698.72;;;13.40;48.16
38616;BME280;24370;51.986;4.666;2024-01-06T02:39:32;100697.84;;;13.76;47.52
38616;BME280;24370;51.986;4.666;2024-01-06T02:41:57;100693.69;;;14.66;45.06
38616;BME280;24370;51.986;4.666;2024-01-06T02:44:23;100702.72;;;13.91;45.98
38616;BME280;24370;51.986;4.666;2024-01-06T02:46:48;100706.72;;;13.32;48.32
38616;BME280;24370;51.986;4.666;2024-01-06T02:49:14;100702.84;;;13.11;47.67
38616;BME280;24370;51.986;4.666;2024-01-06T02:51:39;100708.13;;;13.49;47.17
38616;BME280;24370;51.986;4.666;2024-01-06T02:54:04;100708.16;;;14.18;45.82
38616;BME280;24370;51.986;4.666;2024-01-06T02:56:30;100714.59;;;12.95;47.93
38616;BME280;24370;51.986;4.666;2024-01-06T02:58:55;100719.88;;;12.93;49.06
38616;BME280;24370;51.986;4.666;2024-01-06T03:01:20;100734.16;;;12.34;49.14
38616;BME280;24370;51.986;4.666;2024-01-06T03:03:46;100727.22;;;12.76;49.36
38616;BME280;24370;51.986;4.666;2024-01-06T03:06:11;100727.41;;;12.66;48.88
38616;BME280;24370;51.986;4.666;2024-01-06T03:08:36;100736.00;;;13.56;46.73
38616;BME280;24370;51.986;4.666;2024-01-06T03:11:02;100733.81;;;12.51;49.46
38616;BME280;24370;51.986;4.666;2024-01-06T03:13:29;100734.63;;;13.39;47.91
38616;BME280;24370;51.986;4.666;2024-01-06T03:15:54;100740.84;;;12.93;49.10
38616;BME280;24370;51.986;4.666;2024-01-06T03:18:20;100737.19;;;12.58;50.51
38616;BME280;24370;51.986;4.666;2024-01-06T03:20:45;100741.25;;;13.15;48.44
38616;BME280;24370;51.986;4.666;2024-01-06T03:23:10;100739.16;;;13.30;48.82
38616;BME280;24370;51.986;4.666;2024-01-06T03:25:36;100746.41;;;13.59;47.40
38616;BME280;24370;51.986;4.666;2024-01-06T03:28:01;100744.00;;;13.86;47.25
38616;BME280;24370;51.986;4.666;2024-01-06T03:30:26;100752.94;;;13.79;47.25
38616;BME280;24370;51.986;4.666;2024-01-06T03:32:52;100752.34;;;12.87;49.28
38616;BME280;24370;51.986;4.666;2024-01-06T03:35:17;100760.97;;;12.49;49.70
38616;BME280;24370;51.986;4.666;2024-01-06T03:37:43;100751.28;;;12.96;48.44
38616;BME280;24370;51.986;4.666;2024-01-06T03:40:09;100759.94;;;13.80;47.11
38616;BME280;24370;51.986;4.666;2024-01-06T03:42:34;100765.94;;;13.47;47.47
38616;BME280;24370;51.986;4.666;2024-01-06T03:45:02;100768.56;;;13.47;47.70
38616;BME280;24370;51.986;4.666;2024-01-06T03:47:27;100769.06;;;12.82;49.13
38616;BME280;24370;51.986;4.666;2024-01-06T03:49:52;100767.34;;;13.21;48.78
38616;BME280;24370;51.986;4.666;2024-01-06T03:52:18;100769.56;;;13.42;48.92
38616;BME280;24370;51.986;4.666;2024-01-06T03:54:43;100781.66;;;14.21;46.70
38616;BME280;24370;51.986;4.666;2024-01-06T03:57:08;100792.59;;;13.68;47.79
38616;BME280;24370;51.986;4.666;2024-01-06T03:59:34;100789.31;;;12.28;51.42
38616;BME280;24370;51.986;4.666;2024-01-06T04:01:59;100783.25;;;13.56;48.23
38616;BME280;24370;51.986;4.666;2024-01-06T04:04:24;100784.22;;;13.52;48.57
38616;BME280;24370;51.986;4.666;2024-01-06T04:06:50;100793.28;;;13.38;48.66
38616;BME280;24370;51.986;4.666;2024-01-06T04:09:15;100798.69;;;12.87;49.59
38616;BME280;24370;51.986;4.666;2024-01-06T04:11:40;100800.09;;;13.03;48.89
38616;BME280;24370;51.986;4.666;2024-01-06T04:14:06;100807.88;;;12.16;50.60
38616;BME280;24370;51.986;4.666;2024-01-06T04:16:31;100805.59;;;12.91;48.71
38616;BME280;24370;51.986;4.666;2024-01-06T04:18:56;100808.88;;;13.02;48.18
38616;BME280;24370;51.986;4.666;2024-01-06T04:21:22;100820.06;;;12.17;50.46
38616;BME280;24370;51.986;4.666;2024-01-06T04:23:47;100819.56;;;12.93;48.48
38616;BME280;24370;51.986;4.666;2024-01-06T04:26:12;100825.09;;;11.75;50.63
38616;BME280;24370;51.986;4.666;2024-01-06T04:28:38;100818.47;;;12.58;49.34
38616;BME280;24370;51.986;4.666;2024-01-06T04:31:03;100810.91;;;13.71;47.31
38616;BME280;24370;51.986;4.666;2024-01-06T04:33:29;100822.50;;;13.20;48.29
38616;BME280;24370;51.986;4.666;2024-01-06T04:35:54;100838.41;;;12.17;49.17
38616;BME280;24370;51.986;4.666;2024-01-06T04:38:20;100833.69;;;12.84;48.73
38616;BME280;24370;51.986;4.666;2024-01-06T04:40:45;100828.25;;;13.78;46.94
38616;BME280;24370;51.986;4.666;2024-01-06T04:43:11;100829.91;;;13.43;48.24
38616;BME280;24370;51.986;4.666;2024-01-06T04:45:36;100833.53;;;13.37;47.92
38616;BME280;24370;51.986;4.666;2024-01-06T04:48:03;100839.06;;;12.31;50.41
38616;BME280;24370;51.986;4.666;2024-01-06T04:50:31;100828.63;;;13.20;48.07
38616;BME280;24370;51.986;4.666;2024-01-06T04:52:57;100835.00;;;13.51;47.55
38616;BME280;24370;51.986;4.666;2024-01-06T04:55:22;100839.84;;;12.36;49.69
38616;BME280;24370;51.986;4.666;2024-01-06T04:57:48;100842.06;;;12.07;50.51
38616;BME280;24370;51.986;4.666;2024-01-06T05:00:14;100846.47;;;12.56;50.06
38616;BME280;24370;51.986;4.666;2024-01-06T05:02:40;100833.91;;;13.17;48.59
38616;BME280;24370;51.986;4.666;2024-01-06T05:05:06;100849.69;;;12.70;49.29
38616;BME280;24370;51.986;4.666;2024-01-06T05:07:31;100844.09;;;12.42;50.27
38616;BME280;24370;51.986;4.666;2024-01-06T05:09:57;100844.34;;;13.22;48.75
38616;BME280;24370;51.986;4.666;2024-01-06T05:12:22;100859.31;;;13.17;49.05
38616;BME280;24370;51.986;4.666;2024-01-06T05:14:47;100853.03;;;13.66;47.44
38616;BME280;24370;51.986;4.666;2024-01-06T05:17:13;100851.94;;;14.49;45.77
38616;BME280;24370;51.986;4.666;2024-01-06T05:19:38;100857.31;;;14.10;47.01
38616;BME280;24370;51.986;4.666;2024-01-06T05:22:04;100863.06;;;13.88;46.54
38616;BME280;24370;51.986;4.666;2024-01-06T05:24:29;100875.06;;;12.20;49.29
38616;BME280;24370;51.986;4.666;2024-01-06T05:26:54;100874.72;;;13.32;48.31
38616;BME280;24370;51.986;4.666;2024-01-06T05:29:20;100870.38;;;13.73;47.24
38616;BME280;24370;51.986;4.666;2024-01-06T05:31:45;100877.03;;;13.05;48.37
38616;BME280;24370;51.986;4.666;2024-01-06T05:34:12;100877.53;;;11.68;51.11
38616;BME280;24370;51.986;4.666;2024-01-06T05:36:38;100872.72;;;13.47;48.25
38616;BME280;24370;51.986;4.666;2024-01-06T05:39:03;100868.63;;;14.12;46.03
38616;BME280;24370;51.986;4.666;2024-01-06T05:41:29;100879.03;;;12.91;48.91
38616;BME280;24370;51.986;4.666;2024-01-06T05:43:54;100886.63;;;12.58;49.84
38616;BME280;24370;51.986;4.666;2024-01-06T05:46:21;100891.03;;;12.03;50.31
38616;BME280;24370;51.986;4.666;2024-01-06T05:48:47;100889.91;;;12.72;49.44
38616;BME280;24370;51.986;4.666;2024-01-06T05:51:12;100895.66;;;12.42;49.02
38616;BME280;24370;51.986;4.666;2024-01-06T05:53:37;100900.47;;;13.13;47.24
38616;BME280;24370;51.986;4.666;2024-01-06T05:56:03;100905.06;;;12.53;48.91
38616;BME280;24370;51.986;4.666;2024-01-06T05:58:29;100907.16;;;12.84;47.99
38616;BME280;24370;51.986;4.666;2024-01-06T06:00:54;100915.22;;;12.72;48.21
38616;BME280;24370;51.986;4.666;2024-01-06T06:03:19;100918.28;;;12.49;47.98
38616;BME280;24370;51.986;4.666;2024-01-06T06:05:45;100914.53;;;13.57;47.14
38616;BME280;24370;51.986;4.666;2024-01-06T06:08:10;100913.53;;;14.40;44.84
38616;BME280;24370;51.986;4.666;2024-01-06T06:10:35;100924.81;;;13.68;45.45
38616;BME280;24370;51.986;4.666;2024-01-06T06:13:24;100932.94;;;12.59;47.97
38616;BME280;24370;51.986;4.666;2024-01-06T06:15:50;100935.16;;;13.74;45.65
38616;BME280;24370;51.986;4.666;2024-01-06T06:18:15;100950.88;;;12.84;47.69
38616;BME280;24370;51.986;4.666;2024-01-06T06:20:41;100949.94;;;12.88;47.66
38616;BME280;24370;51.986;4.666;2024-01-06T06:23:09;100953.03;;;13.57;46.85
38616;BME280;24370;51.986;4.666;2024-01-06T06:25:34;100953.91;;;13.57;46.06
38616;BME280;24370;51.986;4.666;2024-01-06T06:27:59;100957.50;;;13.06;47.21
38616;BME280;24370;51.986;4.666;2024-01-06T06:30:25;100961.28;;;12.90;47.54
38616;BME280;24370;51.986;4.666;2024-01-06T06:32:51;100959.19;;;12.58;48.78
38616;BME280;24370;51.986;4.666;2024-01-06T06:35:16;100964.88;;;12.83;47.05
38616;BME280;24370;51.986;4.666;2024-01-06T06:37:41;100967.47;;;12.86;46.93
38616;BME280;24370;51.986;4.666;2024-01-06T06:40:07;100971.84;;;12.32;48.27
38616;BME280;24370;51.986;4.666;2024-01-06T06:42:33;100980.69;;;12.80;47.49
38616;BME280;24370;51.986;4.666;2024-01-06T06:44:58;100981.63;;;12.18;49.46
38616;BME280;24370;51.986;4.666;2024-01-06T06:47:23;100983.59;;;12.03;49.29
38616;BME280;24370;51.986;4.666;2024-01-06T06:49:49;100983.31;;;12.80;47.82
38616;BME280;24370;51.986;4.666;2024-01-06T06:52:14;100991.63;;;13.06;47.39
38616;BME280;24370;51.986;4.666;2024-01-06T06:54:39;100993.44;;;12.47;48.41
38616;BME280;24370;51.986;4.666;2024-01-06T06:57:05;100995.00;;;12.60;49.14
38616;BME280;24370;51.986;4.666;2024-01-06T06:59:31;101007.72;;;12.27;49.75
38616;BME280;24370;51.986;4.666;2024-01-06T07:01:57;101001.63;;;12.83;48.71
38616;BME280;24370;51.986;4.666;2024-01-06T07:04:22;101012.66;;;12.49;49.44
38616;BME280;24370;51.986;4.666;2024-01-06T07:06:48;101016.75;;;12.08;49.97
38616;BME280;24370;51.986;4.666;2024-01-06T07:09:14;101018.22;;;11.51;51.29
38616;BME280;24370;51.986;4.666;2024-01-06T07:11:39;101022.59;;;11.52;51.92
38616;BME280;24370;51.986;4.666;2024-01-06T07:14:04;101025.31;;;12.19;50.37
38616;BME280;24370;51.986;4.666;2024-01-06T07:16:30;101036.97;;;12.60;49.16
38616;BME280;24370;51.986;4.666;2024-01-06T07:18:55;101046.88;;;11.66;51.85
38616;BME280;24370;51.986;4.666;2024-01-06T07:21:20;101044.84;;;11.90;50.69
38616;BME280;24370;51.986;4.666;2024-01-06T07:23:46;101045.66;;;12.62;49.15
38616;BME280;24370;51.986;4.666;2024-01-06T07:26:11;101040.38;;;13.18;47.99
38616;BME280;24370;51.986;4.666;2024-01-06T07:28:36;101055.75;;;12.87;49.09
38616;BME280;24370;51.986;4.666;2024-01-06T07:31:02;101065.44;;;12.24;49.43
38616;BME280;24370;51.986;4.666;2024-01-06T07:33:27;101072.38;;;12.25;49.43
38616;BME280;24370;51.986;4.666;2024-01-06T07:35:52;101069.72;;;12.30;50.38
38616;BME280;24370;51.986;4.666;2024-01-06T07:38:18;101065.06;;;13.08;46.95
38616;BME280;24370;51.986;4.666;2024-01-06T07:40:44;101078.25;;;13.56;47.67
38616;BME280;24370;51.986;4.666;2024-01-06T07:43:10;101075.84;;;14.33;45.78
38616;BME280;24370;51.986;4.666;2024-01-06T07:45:35;101079.72;;;14.15;45.51
38616;BME280;24370;51.986;4.666;2024-01-06T07:48:00;101091.03;;;12.67;48.76
38616;BME280;24370;51.986;4.666;2024-01-06T07:50:26;101091.03;;;12.67;48.72
38616;BME280;24370;51.986;4.666;2024-01-06T07:52:53;101088.09;;;12.89;48.69
38616;BME280;24370;51.986;4.666;2024-01-06T07:55:18;101093.56;;;12.10;50.19
38616;BME280;24370;51.986;4.666;2024-01-06T07:57:44;101099.59;;;12.82;48.48
38616;BME280;24370;51.986;4.666;2024-01-06T08:00:10;101113.75;;;12.68;48.39
38616;BME280;24370;51.986;4.666;2024-01-06T08:02:35;101111.19;;;12.64;48.77
38616;BME280;24370;51.986;4.666;2024-01-06T08:05:01;101114.91;;;12.49;48.47
38616;BME280;24370;51.986;4.666;2024-01-06T08:07:26;101114.19;;;12.97;47.69
38616;BME280;24370;51.986;4.666;2024-01-06T08:09:51;101120.00;;;12.61;48.84
38616;BME280;24370;51.986;4.666;2024-01-06T08:12:17;101123.13;;;12.86;47.69
38616;BME280;24370;51.986;4.666;2024-01-06T08:14:43;101131.25;;;12.66;48.54
38616;BME280;24370;51.986;4.666;2024-01-06T08:17:08;101131.63;;;13.01;47.82
38616;BME280;24370;51.986;4.666;2024-01-06T08:19:33;101138.50;;;12.49;48.29
38616;BME280;24370;51.986;4.666;2024-01-06T08:22:01;101140.53;;;12.90;47.91
38616;BME280;24370;51.986;4.666;2024-01-06T08:24:26;101141.00;;;13.19;47.24
38616;BME280;24370;51.986;4.666;2024-01-06T08:26:51;101150.56;;;13.21;47.11
38616;BME280;24370;51.986;4.666;2024-01-06T08:29:17;101149.50;;;13.33;46.54
38616;BME280;24370;51.986;4.666;2024-01-06T08:31:44;101150.59;;;12.59;48.15
38616;BME280;24370;51.986;4.666;2024-01-06T08:34:09;101157.53;;;14.24;44.72
38616;BME280;24370;51.986;4.666;2024-01-06T08:36:35;101161.72;;;12.07;48.66
38616;BME280;24370;51.986;4.666;2024-01-06T08:39:00;101165.13;;;13.44;46.25
38616;BME280;24370;51.986;4.666;2024-01-06T08:41:26;101158.00;;;13.51;45.97
38616;BME280;24370;51.986;4.666;2024-01-06T08:43:51;101162.72;;;13.80;45.70
38616;BME280;24370;51.986;4.666;2024-01-06T08:46:16;101165.59;;;14.15;44.58
38616;BME280;24370;51.986;4.666;2024-01-06T08:48:42;101162.78;;;14.24;44.40
38616;BME280;24370;51.986;4.666;2024-01-06T08:51:07;101165.72;;;13.58;46.36
38616;BME280;24370;51.986;4.666;2024-01-06T08:53:33;101166.69;;;12.95;47.01
38616;BME280;24370;51.986;4.666;2024-01-06T08:55:58;101177.25;;;13.51;46.22
38616;BME280;24370;51.986;4.666;2024-01-06T08:58:23;101187.25;;;13.26;46.84
38616;BME280;24370;51.986;4.666;2024-01-06T09:00:49;101191.16;;;12.29;48.33
38616;BME280;24370;51.986;4.666;2024-01-06T09:03:15;101197.59;;;11.94;48.97
38616;BME280;24370;51.986;4.666;2024-01-06T09:05:41;101199.69;;;12.48;48.57
38616;BME280;24370;51.986;4.666;2024-01-06T09:08:06;101201.41;;;12.50;48.74
38616;BME280;24370;51.986;4.666;2024-01-06T09:10:31;101202.66;;;12.90;47.87
38616;BME280;24370;51.986;4.666;2024-01-06T09:12:57;101193.25;;;13.87;46.01
38616;BME280;24370;51.986;4.666;2024-01-06T09:15:23;101206.78;;;13.06;46.74
38616;BME280;24370;51.986;4.666;2024-01-06T09:17:48;101213.56;;;12.56;47.32
38616;BME280;24370;51.986;4.666;2024-01-06T09:20:13;101215.53;;;12.38;47.96
38616;BME280;24370;51.986;4.666;2024-01-06T09:22:39;101227.94;;;12.21;48.56
38616;BME280;24370;51.986;4.666;2024-01-06T09:25:04;101228.72;;;12.32;48.23
38616;BME280;24370;51.986;4.666;2024-01-06T09:27:30;101221.34;;;13.84;45.04
38616;BME280;24370;51.986;4.666;2024-01-06T09:29:55;101228.31;;;13.86;45.01
38616;BME280;24370;51.986;4.666;2024-01-06T09:32:21;101239.78;;;13.24;47.22
38616;BME280;24370;51.986;4.666;2024-01-06T09:34:48;101235.63;;;14.19;44.76
38616;BME280;24370;51.986;4.666;2024-01-06T09:37:13;101241.53;;;13.82;44.85
38616;BME280;24370;51.986;4.666;2024-01-06T09:39:39;101245.50;;;13.53;46.01
38616;BME280;24370;51.986;4.666;2024-01-06T09:42:05;101253.53;;;12.77;47.56
38616;BME280;24370;51.986;4.666;2024-01-06T09:44:30;101251.38;;;13.08;47.01
38616;BME280;24370;51.986;4.666;2024-01-06T09:46:58;101257.19;;;13.88;45.32
38616;BME280;24370;51.986;4.666;2024-01-06T09:49:26;101260.97;;;13.09;47.10
38616;BME280;24370;51.986;4.666;2024-01-06T09:51:59;101265.81;;;14.45;44.35
38616;BME280;24370;51.986;4.666;2024-01-06T09:54:25;101265.81;;;13.42;46.54
38616;BME280;24370;51.986;4.666;2024-01-06T09:56:55;101277.22;;;14.43;44.67
38616;BME280;24370;51.986;4.666;2024-01-06T09:59:21;101286.16;;;13.83;45.11
38616;BME280;24370;51.986;4.666;2024-01-06T10:01:48;101286.13;;;13.86;45.49
38616;BME280;24370;51.986;4.666;2024-01-06T10:04:14;101282.97;;;13.00;46.59
38616;BME280;24370;51.986;4.666;2024-01-06T10:06:41;101279.34;;;13.73;46.58
38616;BME280;24370;51.986;4.666;2024-01-06T10:09:06;101292.13;;;14.45;44.58
38616;BME280;24370;51.986;4.666;2024-01-06T10:11:32;101283.72;;;13.72;45.02
38616;BME280;24370;51.986;4.666;2024-01-06T10:13:57;101300.03;;;13.32;46.79
38616;BME280;24370;51.986;4.666;2024-01-06T10:16:23;101290.00;;;14.17;44.96
38616;BME280;24370;51.986;4.666;2024-01-06T10:18:48;101298.66;;;13.06;46.26
38616;BME280;24370;51.986;4.666;2024-01-06T10:21:14;101297.91;;;14.15;44.37
38616;BME280;24370;51.986;4.666;2024-01-06T10:23:43;101304.25;;;14.03;44.77
38616;BME280;24370;51.986;4.666;2024-01-06T10:26:12;101308.91;;;13.84;45.01
38616;BME280;24370;51.986;4.666;2024-01-06T10:28:38;101302.28;;;14.15;43.72
38616;BME280;24370;51.986;4.666;2024-01-06T10:31:03;101307.75;;;14.02;44.41
38616;BME280;24370;51.986;4.666;2024-01-06T10:33:32;101306.84;;;14.05;44.23
38616;BME280;24370;51.986;4.666;2024-01-06T10:35:59;101311.06;;;14.64;43.07
38616;BME280;24370;51.986;4.666;2024-01-06T10:38:26;101310.03;;;14.72;43.17
38616;BME280;24370;51.986;4.666;2024-01-06T10:40:58;101317.81;;;14.30;43.71
38616;BME280;24370;51.986;4.666;2024-01-06T10:43:26;101326.88;;;13.56;44.85
38616;BME280;24370;51.986;4.666;2024-01-06T10:45:58;101324.56;;;13.94;44.17
38616;BME280;24370;51.986;4.666;2024-01-06T10:48:30;101336.47;;;13.57;44.97
38616;BME280;24370;51.986;4.666;2024-01-06T10:50:58;101330.28;;;12.94;45.50
38616;BME280;24370;51.986;4.666;2024-01-06T10:53:26;101327.50;;;13.08;46.04
38616;BME280;24370;51.986;4.666;2024-01-06T10:55:52;101335.72;;;12.76;45.76
38616;BME280;24370;51.986;4.666;2024-01-06T10:58:18;101344.00;;;13.18;46.28
38616;BME280;24370;51.986;4.666;2024-01-06T11:00:45;101333.28;;;12.60;46.33
38616;BME280;24370;51.986;4.666;2024-01-06T11:03:12;101342.22;;;13.18;45.71
38616;BME280;24370;51.986;4.666;2024-01-06T11:05:38;101339.41;;;13.96;43.69
38616;BME280;24370;51.986;4.666;2024-01-06T11:08:05;101341.78;;;13.54;44.52
38616;BME280;24370;51.986;4.666;2024-01-06T11:10:32;101344.44;;;14.60;42.38
38616;BME280;24370;51.986;4.666;2024-01-06T11:13:08;101343.59;;;12.76;45.84
38616;BME280;24370;51.986;4.666;2024-01-06T11:18:33;101339.00;;;12.96;46.15
38616;BME280;24370;51.986;4.666;2024-01-06T11:21:15;101346.44;;;12.57;46.31
38616;BME280;24370;51.986;4.666;2024-01-06T11:26:32;101350.59;;;14.07;43.63
38616;BME280;24370;51.986;4.666;2024-01-06T11:29:00;101348.81;;;13.50;44.82
38616;BME280;24370;51.986;4.666;2024-01-06T11:31:31;101346.16;;;14.13;43.59
38616;BME280;24370;51.986;4.666;2024-01-06T11:34:12;101357.75;;;13.99;44.09
38616;BME280;24370;51.986;4.666;2024-01-06T11:36:38;101350.78;;;13.36;45.12
38616;BME280;24370;51.986;4.666;2024-01-06T11:39:05;101354.69;;;12.99;45.26
38616;BME280;24370;51.986;4.666;2024-01-06T11:41:50;101358.84;;;12.39;46.74
38616;BME280;24370;51.986;4.666;2024-01-06T11:44:23;101356.53;;;12.94;45.83
38616;BME280;24370;51.986;4.666;2024-01-06T11:46:48;101361.50;;;12.33;46.32
38616;BME280;24370;51.986;4.666;2024-01-06T11:49:19;101360.16;;;13.54;44.92
38616;BME280;24370;51.986;4.666;2024-01-06T11:51:45;101358.84;;;13.84;44.21
38616;BME280;24370;51.986;4.666;2024-01-06T11:54:11;101369.63;;;13.67;44.48
38616;BME280;24370;51.986;4.666;2024-01-06T11:56:38;101359.09;;;13.67;44.66
38616;BME280;24370;51.986;4.666;2024-01-06T11:59:03;101357.97;;;13.85;44.33
38616;BME280;24370;51.986;4.666;2024-01-06T12:01:39;101361.56;;;13.80;44.42
38616;BME280;24370;51.986;4.666;2024-01-06T12:04:05;101369.50;;;13.06;45.72
38616;BME280;24370;51.986;4.666;2024-01-06T12:06:31;101360.94;;;12.90;46.78
38616;BME280;24370;51.986;4.666;2024-01-06T12:09:07;101362.47;;;12.23;47.41
38616;BME280;24370;51.986;4.666;2024-01-06T12:11:33;101362.31;;;13.21;45.71
38616;BME280;24370;51.986;4.666;2024-01-06T12:13:59;101358.63;;;12.60;46.30
38616;BME280;24370;51.986;4.666;2024-01-06T12:16:24;101360.75;;;12.19;47.64
38616;BME280;24370;51.986;4.666;2024-01-06T12:18:56;101359.44;;;12.65;46.55
38616;BME280;24370;51.986;4.666;2024-01-06T12:21:25;101362.13;;;13.39;45.05
38616;BME280;24370;51.986;4.666;2024-01-06T12:23:50;101370.03;;;12.57;46.79
38616;BME280;24370;51.986;4.666;2024-01-06T12:26:17;101373.09;;;12.96;46.05
38616;BME280;24370;51.986;4.666;2024-01-06T12:28:45;101376.28;;;13.90;43.89
38616;BME280;24370;51.986;4.666;2024-01-06T12:31:11;101358.47;;;12.77;46.55
38616;BME280;24370;51.986;4.666;2024-01-06T12:33:40;101367.16;;;12.82;45.97
38616;BME280;24370;51.986;4.666;2024-01-06T12:36:08;101356.38;;;13.08;44.96
38616;BME280;24370;51.986;4.666;2024-01-06T12:38:36;101364.75;;;13.39;44.68
38616;BME280;24370;51.986;4.666;2024-01-06T12:41:04;101368.81;;;12.89;45.58
38616;BME280;24370;51.986;4.666;2024-01-06T12:43:29;101360.16;;;12.81;45.88
38616;BME280;24370;51.986;4.666;2024-01-06T12:45:55;101373.56;;;12.54;46.17
38616;BME280;24370;51.986;4.666;2024-01-06T12:48:22;101371.06;;;12.41;46.02
38616;BME280;24370;51.986;4.666;2024-01-06T12:50:47;101373.00;;;13.07;45.21